Time;durP1;ratioP1;P1;durP2;ratioP2;P2;SDS_P1;SDS_P2;PMS_P1;PMS_P2;Temp;Humidity;BMP_temperature;BMP_pressure;BME280_temperature;BME280_humidity;BME280_pressure;Samples;Min_cycle;Max_cycle;Signal;HPM_P1;HPM_P2
2022/09/07 00:01:06;;;;;;;;;;;18.30;71.50;;;17.58;65.93;96672.13;4263603;33;20180;-82
2022/09/07 00:03:34;;;;;;;;;;;18.30;72.50;;;17.59;65.72;96668.25;4263261;33;19902;-82
2022/09/07 00:06:07;;;;;;;;;;;18.30;71.40;;;17.58;66.05;96669.38;4247170;33;19925;-82
2022/09/07 00:08:35;;;;;;;;;;;18.30;71.60;;;17.57;65.55;96671.31;4234743;33;19980;-82
2022/09/07 00:11:06;;;;;;;;;;;18.30;71.30;;;17.56;65.79;96669.66;4257434;33;20101;-82
2022/09/07 00:13:36;;;;;;;;;;;18.30;71.50;;;17.57;65.92;96664.97;4233601;33;20152;-82
2022/09/07 00:16:07;;;;;;;;;;;18.30;71.60;;;17.57;66.06;96659.41;4209842;33;19903;-82
2022/09/07 00:18:36;;;;;;;;;;;18.30;71.60;;;17.55;65.94;96662.50;4234597;33;20064;-82
2022/09/07 00:21:06;;;;;;;;;;;18.30;71.70;;;17.56;66.10;96660.53;4233783;33;19902;-82
2022/09/07 00:23:36;;;;;;;;;;;18.30;71.80;;;17.56;65.79;96668.84;4233613;33;19902;-82
2022/09/07 00:26:08;;;;;;;;;;;18.30;71.60;;;17.54;66.20;96660.84;4256917;33;19970;-82
2022/09/07 00:28:36;;;;;;;;;;;18.30;71.60;;;17.55;66.26;96664.44;4233436;33;19910;-82
2022/09/07 00:31:10;;;;;;;;;;;18.30;72.00;;;17.55;65.92;96667.19;4204645;33;20210;-82
2022/09/07 00:33:39;;;;;;;;;;;18.30;71.70;;;17.54;66.30;96665.56;4233441;33;19902;-82
2022/09/07 00:36:08;;;;;;;;;;;18.30;72.20;;;17.53;66.48;96664.75;4209539;33;19906;-82
2022/09/07 00:38:36;;;;;;;;;;;18.30;72.20;;;17.53;66.27;96663.91;4233294;33;19902;-82
2022/09/07 00:41:05;;;;;;;;;;;18.20;72.00;;;17.52;66.30;96663.09;4233696;33;19902;-82
2022/09/07 00:43:35;;;;;;;;;;;18.30;72.10;;;17.52;66.30;96663.09;4233223;33;19933;-82
2022/09/07 00:46:07;;;;;;;;;;;18.20;72.00;;;17.51;65.96;96652.31;4209524;33;19999;-82
2022/09/07 00:48:38;;;;;;;;;;;18.30;71.80;;;17.52;66.04;96656.72;4233258;33;20225;-82
2022/09/07 00:51:09;;;;;;;;;;;18.20;71.70;;;17.50;65.90;96648.75;4216080;33;19902;-82
2022/09/07 00:53:40;;;;;;;;;;;18.20;71.50;;;17.51;66.19;96655.09;4261774;33;19902;-82
2022/09/07 00:56:08;;;;;;;;;;;18.20;71.80;;;17.51;65.84;96655.09;4261246;33;20446;-82
2022/09/07 00:58:37;;;;;;;;;;;18.20;71.60;;;17.49;66.24;96656.22;4261641;33;19901;-82
2022/09/07 01:01:08;;;;;;;;;;;18.20;71.90;;;17.49;66.16;96647.91;4262630;33;19921;-82
2022/09/07 01:03:40;;;;;;;;;;;18.20;71.80;;;17.48;66.26;96651.81;4262803;33;19909;-82
2022/09/07 01:06:13;;;;;;;;;;;18.20;72.10;;;17.48;66.25;96649.06;4261342;33;19909;-82
2022/09/07 01:08:42;;;;;;;;;;;18.20;72.00;;;17.48;66.13;96657.38;4261695;33;20132;-82
2022/09/07 01:11:11;;;;;;;;;;;18.20;72.00;;;17.46;66.26;96643.00;4237847;33;19909;-82
2022/09/07 01:13:39;;;;;;;;;;;18.20;72.00;;;17.47;66.08;96643.81;4285436;33;20078;-82
2022/09/07 01:16:14;;;;;;;;;;;18.20;72.00;;;17.46;66.31;96643.00;4235796;33;20157;-81
2022/09/07 01:18:48;;;;;;;;;;;18.20;72.10;;;17.46;65.98;96648.53;4233993;33;19902;-83
2022/09/07 01:21:25;;;;;;;;;;;18.20;71.90;;;17.45;66.36;96641.34;4256121;33;23038;-81
2022/09/07 01:24:23;;;;;;;;;;;18.20;72.10;;;17.45;66.30;96646.88;4233070;33;19910;-81
2022/09/07 01:27:22;;;;;;;;;;;18.20;72.00;;;17.44;66.22;96639.72;4229278;33;19985;-81
2022/09/07 01:29:55;;;;;;;;;;;18.20;71.70;;;17.44;66.57;96641.66;4209490;33;19933;-81
2022/09/07 01:32:31;;;;;;;;;;;18.20;72.10;;;17.45;66.30;96640.53;4209309;33;20129;-81
2022/09/07 01:35:20;;;;;;;;;;;18.20;72.00;;;17.44;66.55;96636.94;4232796;33;19971;-81
2022/09/07 01:38:03;;;;;;;;;;;18.20;72.10;;;17.43;66.30;96643.59;4232314;33;19902;-81
2022/09/07 01:44:46;;;;;;;;;;;18.20;72.20;;;17.42;66.04;96641.97;4233565;33;19898;-81
2022/09/07 01:47:18;;;;;;;;;;;18.20;71.90;;;17.42;66.16;96636.44;4232372;33;19909;-81
2022/09/07 01:49:50;;;;;;;;;;;18.10;72.20;;;17.41;65.95;96628.44;4232796;33;19971;-81
2022/09/07 01:52:23;;;;;;;;;;;18.10;71.80;;;17.39;66.46;96625.97;4209159;33;20244;-81
2022/09/07 01:54:55;;;;;;;;;;;18.10;72.10;;;17.40;66.33;96622.06;4209369;33;19902;-81
2022/09/07 01:57:28;;;;;;;;;;;18.20;72.10;;;17.39;66.48;96614.88;4208828;33;19902;-81
2022/09/07 02:00:04;;;;;;;;;;;18.10;72.20;;;17.40;66.47;96612.94;4209429;33;20045;-81
2022/09/07 02:02:44;;;;;;;;;;;18.10;72.10;;;17.39;66.26;96608.53;4232526;33;19902;-81
2022/09/07 02:05:14;;;;;;;;;;;18.10;72.00;;;17.39;66.52;96616.84;4232880;33;20153;-81
2022/09/07 02:07:45;;;;;;;;;;;18.10;72.40;;;17.39;66.58;96608.53;4232931;33;20448;-81
2022/09/07 02:10:16;;;;;;;;;;;18.10;72.30;;;17.39;66.57;96619.63;4232531;33;20365;-81
2022/09/07 02:12:47;;;;;;;;;;;18.10;72.20;;;17.37;66.29;96608.81;4208844;33;20177;-81
2022/09/07 02:15:20;;;;;;;;;;;18.10;72.10;;;17.37;66.49;96614.38;4232827;33;20189;-81
2022/09/07 02:17:50;;;;;;;;;;;18.10;72.30;;;17.38;66.58;96621.53;4208552;33;20057;-81
2022/09/07 02:20:21;;;;;;;;;;;18.10;72.30;;;17.37;66.66;96619.91;4233419;33;19917;-81
2022/09/07 02:22:53;;;;;;;;;;;18.10;72.30;;;17.37;66.56;96625.44;4233717;33;19961;-81
2022/09/07 02:25:23;;;;;;;;;;;18.10;72.40;;;17.36;66.43;96615.53;4234176;33;19902;-81
2022/09/07 02:27:55;;;;;;;;;;;18.10;72.10;;;17.37;66.49;96610.78;4211011;33;20217;-81
2022/09/07 02:30:25;;;;;;;;;;;18.10;72.20;;;17.36;66.63;96609.97;4234835;33;20240;-81
2022/09/07 02:32:55;;;;;;;;;;;18.10;72.40;;;17.36;66.45;96603.63;4234911;33;19910;-81
2022/09/07 02:35:23;;;;;;;;;;;18.10;72.30;;;17.36;66.51;96606.38;4234853;33;20115;-81
2022/09/07 02:37:52;;;;;;;;;;;18.10;72.40;;;17.35;66.52;96600.03;4240808;33;20207;-81
2022/09/07 02:40:20;;;;;;;;;;;18.10;72.20;;;17.35;66.79;96600.03;4263279;33;19974;-81
2022/09/07 02:43:29;;;;;;;;;;;18.10;72.20;;;17.35;66.72;96597.28;4263317;33;19901;-81
2022/09/07 02:46:15;;;;;;;;;;;18.10;72.40;;;17.35;66.84;96593.66;4262894;33;20216;-81
2022/09/07 02:49:46;;;;;;;;;;;18.10;72.40;;;17.33;66.67;96593.97;4249716;33;19902;-80
2022/09/07 02:52:21;;;;;;;;;;;18.10;72.40;;;17.34;66.08;96592.84;4211398;33;19903;-81
2022/09/07 02:54:59;;;;;;;;;;;18.00;72.00;;;17.33;66.37;96593.97;4237076;33;19902;-81
2022/09/07 02:57:37;;;;;;;;;;;18.00;72.10;;;17.33;66.61;96593.97;4262880;33;20266;-81
2022/09/07 03:00:09;;;;;;;;;;;18.00;72.30;;;17.32;66.41;96581.28;4263228;33;19909;-81
2022/09/07 03:02:46;;;;;;;;;;;18.00;72.20;;;17.32;66.54;96576.53;4263896;33;19924;-81
2022/09/07 03:05:20;;;;;;;;;;;18.00;72.10;;;17.32;66.39;96575.72;4287270;33;20159;-81
2022/09/07 03:07:53;;;;;;;;;;;18.00;72.40;;;17.31;66.74;96577.66;4262818;33;20114;-81
2022/09/07 03:10:21;;;;;;;;;;;18.00;72.40;;;17.31;66.50;96574.91;4207348;33;20221;-81
2022/09/07 03:12:50;;;;;;;;;;;18.00;72.20;;;17.31;66.54;96582.38;4207119;33;19902;-81
2022/09/07 03:15:20;;;;;;;;;;;18.00;72.30;;;17.31;66.49;96579.63;4182956;33;19903;-81
2022/09/07 03:17:50;;;;;;;;;;;18.00;72.10;;;17.31;66.54;96583.19;4206976;33;20044;-81
2022/09/07 03:20:19;;;;;;;;;;;18.00;72.30;;;17.31;66.63;96579.63;4206217;33;20025;-81
2022/09/07 03:22:49;;;;;;;;;;;18.00;72.40;;;17.30;66.61;96577.97;4205901;33;19910;-81
2022/09/07 03:25:18;;;;;;;;;;;18.00;72.30;;;17.29;66.36;96579.09;4206042;33;20046;-82
2022/09/07 03:27:47;;;;;;;;;;;18.10;72.20;;;17.30;66.62;96589.06;4182554;33;19903;-82
2022/09/07 03:30:15;;;;;;;;;;;18.00;72.30;;;17.28;66.78;96591.28;4231129;33;20243;-82
2022/09/07 03:32:44;;;;;;;;;;;18.00;72.40;;;17.28;66.59;96597.66;4262672;33;20384;-82
2022/09/07 03:35:15;;;;;;;;;;;18.00;72.40;;;17.28;66.65;96592.13;4262540;33;19901;-82
2022/09/07 03:38:55;;;;;;;;;;;18.00;72.30;;;17.29;66.39;96590.16;4262204;33;20030;-82
2022/09/07 03:41:23;;;;;;;;;;;18.00;72.20;;;17.27;66.74;96590.50;4205989;33;19910;-82
2022/09/07 03:43:54;;;;;;;;;;;18.00;72.40;;;17.27;66.61;96596.03;4182869;33;20110;-82
2022/09/07 03:46:23;;;;;;;;;;;18.00;72.40;;;17.27;66.71;96597.94;4205279;33;20379;-82
2022/09/07 03:48:52;;;;;;;;;;;18.00;72.50;;;17.28;66.66;96596.81;4206038;33;19909;-82
2022/09/07 03:51:22;;;;;;;;;;;18.00;72.40;;;17.28;66.50;96585.75;4205769;33;20159;-82
2022/09/07 03:53:51;;;;;;;;;;;18.00;72.40;;;17.27;66.71;96592.41;4206569;33;19910;-82
2022/09/07 03:56:21;;;;;;;;;;;18.00;72.40;;;17.27;66.51;96586.88;4205259;33;19925;-82
2022/09/07 03:58:50;;;;;;;;;;;18.00;72.60;;;17.26;66.62;96594.38;4205885;33;19903;-81
2022/09/07 04:01:20;;;;;;;;;;;18.00;72.40;;;17.28;66.84;96596.81;4205561;33;19903;-82
2022/09/07 04:03:49;;;;;;;;;;;18.00;72.50;;;17.27;66.85;96597.94;4205911;33;20160;-82
2022/09/07 04:06:18;;;;;;;;;;;18.00;72.50;;;17.27;66.58;96589.66;4181936;33;19903;-82
2022/09/07 04:08:48;;;;;;;;;;;18.00;72.40;;;17.27;66.68;96597.94;4182501;33;19906;-81
2022/09/07 04:11:18;;;;;;;;;;;18.00;72.50;;;17.26;66.45;96594.38;4182693;33;19925;-82
2022/09/07 04:13:46;;;;;;;;;;;18.00;72.30;;;17.28;66.92;96603.19;4229104;33;20245;-82
2022/09/07 04:16:17;;;;;;;;;;;18.00;72.30;;;17.27;66.48;96606.25;4204806;33;20298;-82
2022/09/07 04:18:46;;;;;;;;;;;18.00;72.30;;;17.27;66.74;96597.94;4182380;33;19917;-82
2022/09/07 04:21:14;;;;;;;;;;;18.00;72.50;;;17.27;66.53;96598.78;4205577;33;19903;-82
2022/09/07 04:23:43;;;;;;;;;;;18.00;72.40;;;17.28;66.52;96597.66;4228729;33;20376;-82
2022/09/07 04:26:17;;;;;;;;;;;18.00;72.20;;;17.29;66.47;96598.47;4205079;33;19903;-82
2022/09/07 04:28:46;;;;;;;;;;;18.00;72.10;;;17.29;66.73;96604.00;4205546;33;19910;-82
2022/09/07 04:31:15;;;;;;;;;;;18.00;72.00;;;17.29;66.75;96598.47;4253604;33;19924;-82
2022/09/07 04:33:44;;;;;;;;;;;18.00;72.30;;;17.29;66.59;96606.78;4262127;33;19982;-82
2022/09/07 04:36:13;;;;;;;;;;;18.00;72.20;;;17.29;66.30;96604.00;4262491;33;20012;-81
2022/09/07 04:38:41;;;;;;;;;;;18.00;72.10;;;17.28;66.30;96599.59;4262269;33;19948;-82
2022/09/07 04:41:12;;;;;;;;;;;18.00;71.80;;;17.29;66.38;96595.72;4216908;33;20137;-82
2022/09/07 04:43:42;;;;;;;;;;;18.00;72.10;;;17.29;66.46;96595.72;4233403;33;20178;-82
2022/09/07 05:01:02;;;;;;;;;;;18.00;71.80;;;17.34;65.67;96587.31;4302967;32;19901;-84
2022/09/07 05:03:31;;;;;;;;;;;18.10;71.70;;;17.37;65.95;96592.22;4245065;33;19909;-84
2022/09/07 05:06:01;;;;;;;;;;;18.10;71.80;;;17.40;65.99;96599.91;4271405;28;20054;-81
2022/09/07 05:08:30;;;;;;;;;;;18.20;71.80;;;17.41;65.76;96590.50;4249595;33;19902;-82
2022/09/07 05:10:58;;;;;;;;;;;18.20;71.40;;;17.43;65.75;96604.84;4246034;33;20172;-82
2022/09/07 05:13:29;;;;;;;;;;;18.20;71.50;;;17.45;66.02;96594.31;4244862;33;20082;-82
2022/09/07 05:15:58;;;;;;;;;;;18.20;71.60;;;17.44;65.98;96595.44;4268634;33;20126;-82
2022/09/07 05:18:28;;;;;;;;;;;18.20;71.40;;;17.52;65.82;96607.75;4221194;33;19902;-82
2022/09/07 05:20:56;;;;;;;;;;;18.20;71.40;;;17.55;65.65;96601.59;4243880;33;19902;-82
2022/09/07 05:23:25;;;;;;;;;;;18.30;71.60;;;17.57;65.37;96604.06;4243252;33;20036;-82
2022/09/07 05:25:53;;;;;;;;;;;18.30;71.10;;;17.55;65.19;96603.53;4244221;33;20119;-82
2022/09/07 05:28:22;;;;;;;;;;;18.30;71.00;;;17.53;65.66;96605.78;4221281;33;19909;-82
2022/09/07 05:30:51;;;;;;;;;;;18.30;71.20;;;17.53;65.61;96608.56;4244093;33;19902;-81
2022/09/07 05:33:19;;;;;;;;;;;18.30;71.40;;;17.67;65.83;96600.28;4220921;33;19909;-82
2022/09/07 05:35:57;;;;;;;;;;;18.40;71.60;;;17.82;65.09;96602.72;4244462;33;19909;-82
2022/09/07 05:38:27;;;;;;;;;;;18.50;70.90;;;17.94;64.93;96596.66;4244443;33;19906;-82
2022/09/07 05:40:55;;;;;;;;;;;18.70;70.60;;;18.19;64.65;96589.81;4245009;33;20044;-81
2022/09/07 05:43:25;;;;;;;;;;;19.00;70.10;;;18.37;64.03;96593.56;4244590;33;20150;-82
2022/09/07 05:45:55;;;;;;;;;;;19.20;69.40;;;18.47;63.64;96586.16;4244044;33;20240;-81
2022/09/07 05:48:24;;;;;;;;;;;19.40;68.70;;;18.46;63.51;96590.84;4245629;33;20213;-82
2022/09/07 05:50:53;;;;;;;;;;;19.40;68.20;;;18.36;63.58;96585.53;4243796;33;20237;-82
2022/09/07 05:53:23;;;;;;;;;;;19.30;68.30;;;18.25;63.94;96591.31;4268403;33;20178;-81
2022/09/07 05:55:51;;;;;;;;;;;19.20;68.50;;;18.17;64.14;96586.53;4244288;33;19902;-81
2022/09/07 05:58:20;;;;;;;;;;;19.10;69.00;;;18.07;64.56;96590.34;4220796;33;20365;-82
2022/09/07 06:00:49;;;;;;;;;;;19.00;69.30;;;18.02;64.63;96587.66;4239829;33;19909;-82
2022/09/07 06:03:17;;;;;;;;;;;18.90;69.80;;;17.98;64.78;96592.19;4234703;33;20111;-82
2022/09/07 06:05:46;;;;;;;;;;;18.80;70.00;;;17.97;65.01;96586.91;4234344;33;19910;-82
2022/09/07 06:08:14;;;;;;;;;;;18.80;70.20;;;17.95;65.44;96592.78;4234844;33;20210;-82
2022/09/07 06:10:44;;;;;;;;;;;18.70;70.50;;;17.95;64.88;96585.28;4233826;33;19910;-82
2022/09/07 06:13:13;;;;;;;;;;;18.70;70.40;;;17.97;65.31;96596.09;4234817;33;19902;-82
2022/09/07 06:15:42;;;;;;;;;;;18.70;70.80;;;17.95;64.96;96598.31;4234523;33;20138;-82
2022/09/07 06:18:10;;;;;;;;;;;18.70;70.60;;;17.93;65.21;96600.56;4234432;33;19902;-82
2022/09/07 06:20:39;;;;;;;;;;;18.70;70.80;;;17.91;65.45;96591.75;4234016;33;20217;-82
2022/09/07 06:23:07;;;;;;;;;;;18.70;70.90;;;17.88;65.41;96593.19;4235697;33;19902;-82
2022/09/07 06:25:36;;;;;;;;;;;18.70;70.90;;;17.87;65.67;96596.28;4234568;33;20063;-82
2022/09/07 06:28:07;;;;;;;;;;;18.60;70.90;;;17.87;65.42;96607.34;4235671;33;19913;-82
2022/09/07 06:30:35;;;;;;;;;;;18.60;71.00;;;17.84;65.29;96597.69;4233644;33;20030;-82
2022/09/07 06:33:04;;;;;;;;;;;18.60;71.00;;;17.84;65.55;96605.19;4234524;33;20154;-82
2022/09/07 06:35:32;;;;;;;;;;;18.60;71.20;;;17.84;65.53;96607.97;4234220;33;19902;-82
2022/09/07 06:38:01;;;;;;;;;;;18.60;71.10;;;17.82;65.62;96611.03;4234314;33;20318;-82
2022/09/07 06:40:30;;;;;;;;;;;18.60;71.20;;;17.79;65.69;96601.38;4233893;33;20138;-82
2022/09/07 06:42:58;;;;;;;;;;;18.60;71.20;;;17.79;65.62;96618.00;4210886;33;19902;-82
2022/09/07 06:45:28;;;;;;;;;;;18.60;71.30;;;17.79;65.92;96618.00;4234270;33;20205;-82
2022/09/07 06:47:57;;;;;;;;;;;18.50;71.50;;;17.82;65.63;96626.84;4234210;33;19911;-82
2022/09/07 06:50:27;;;;;;;;;;;18.60;71.40;;;17.81;65.79;96614.94;4233677;33;19903;-82
2022/09/07 06:52:55;;;;;;;;;;;18.60;71.50;;;17.81;65.58;96616.88;4210605;33;19913;-82
2022/09/07 06:55:24;;;;;;;;;;;18.60;71.40;;;17.81;66.08;96619.66;4210536;33;19907;-82
2022/09/07 06:57:53;;;;;;;;;;;18.60;71.60;;;17.81;65.80;96625.19;4210736;33;20375;-82
2022/09/07 07:00:22;;;;;;;;;;;18.50;71.60;;;17.81;65.88;96627.97;4233627;33;20266;-82
2022/09/07 07:02:52;;;;;;;;;;;18.50;71.60;;;17.80;66.04;96629.91;4234200;33;20095;-82
2022/09/07 07:05:20;;;;;;;;;;;18.50;71.70;;;17.81;66.02;96636.25;4234961;33;19948;-82
2022/09/07 07:07:49;;;;;;;;;;;18.60;71.70;;;17.79;66.05;96629.09;4234869;33;20261;-82
2022/09/07 07:10:18;;;;;;;;;;;18.50;71.70;;;17.81;66.17;96647.34;4233364;33;19910;-82
2022/09/07 07:12:46;;;;;;;;;;;18.50;71.90;;;17.79;65.71;96640.16;4233245;33;20191;-82
2022/09/07 07:15:15;;;;;;;;;;;18.50;71.80;;;17.79;66.16;96648.47;4234858;33;20290;-82
2022/09/07 07:17:44;;;;;;;;;;;18.50;71.90;;;17.78;66.20;96643.25;4234751;33;20061;-81
2022/09/07 07:20:14;;;;;;;;;;;18.50;71.90;;;17.77;66.00;96653.50;4234469;33;20252;-81
2022/09/07 07:22:43;;;;;;;;;;;18.50;72.00;;;17.77;66.15;96661.00;4233603;33;19949;-82
2022/09/07 07:25:15;;;;;;;;;;;18.50;71.90;;;17.75;66.44;96652.97;4233907;33;20131;-82
2022/09/07 07:27:44;;;;;;;;;;;18.50;72.00;;;17.74;66.29;96656.06;4234748;33;19902;-82
2022/09/07 07:30:13;;;;;;;;;;;18.50;72.10;;;17.73;66.38;96659.94;4233369;33;19909;-82
2022/09/07 07:32:42;;;;;;;;;;;18.50;72.10;;;17.71;66.37;96668.56;4233728;33;19983;-82
2022/09/07 07:35:10;;;;;;;;;;;18.40;72.00;;;17.71;66.20;96662.19;4233597;33;19902;-82
2022/09/07 07:37:41;;;;;;;;;;;18.40;72.00;;;17.68;66.31;96666.41;4234721;33;20026;-82
2022/09/07 07:40:11;;;;;;;;;;;18.40;72.00;;;17.68;66.28;96669.19;4234050;33;19902;-82
2022/09/07 07:42:40;;;;;;;;;;;18.40;72.00;;;17.68;66.29;96669.19;4209956;33;19909;-82
2022/09/07 07:45:10;;;;;;;;;;;18.40;72.10;;;17.66;66.16;96665.88;4233509;33;19902;-82
2022/09/07 07:47:38;;;;;;;;;;;18.40;72.10;;;17.65;66.38;96664.25;4210120;33;19903;-83
2022/09/07 07:50:08;;;;;;;;;;;18.40;72.10;;;17.66;66.51;96659.53;4232846;33;20043;-82
2022/09/07 07:52:39;;;;;;;;;;;18.40;72.10;;;17.64;66.35;96660.66;4234421;33;19937;-82
2022/09/07 07:55:09;;;;;;;;;;;18.40;72.20;;;17.64;66.53;96671.75;4233568;33;19902;-82
2022/09/07 07:57:38;;;;;;;;;;;18.40;72.20;;;17.63;66.44;96669.25;4234337;33;20288;-82
2022/09/07 08:00:08;;;;;;;;;;;18.40;72.20;;;17.63;66.46;96672.88;4232969;33;20100;-82
2022/09/07 08:02:39;;;;;;;;;;;18.40;72.30;;;17.63;66.59;96674.78;4234332;33;20036;-82
2022/09/07 08:05:09;;;;;;;;;;;18.40;72.20;;;17.62;66.46;96676.75;4234266;33;19963;-82
2022/09/07 08:07:38;;;;;;;;;;;18.40;72.20;;;17.61;66.67;96671.53;4233484;33;20122;-82
2022/09/07 08:10:10;;;;;;;;;;;18.40;72.30;;;17.61;66.56;96661.28;4232811;33;19903;-82
2022/09/07 08:12:39;;;;;;;;;;;18.30;72.40;;;17.60;66.59;96658.81;4234213;33;19928;-83
2022/09/07 08:15:09;;;;;;;;;;;18.40;72.30;;;17.60;66.38;96654.09;4233384;33;19986;-82
2022/09/07 08:17:37;;;;;;;;;;;18.40;72.30;;;17.60;66.28;96665.16;4234033;33;19902;-82
2022/09/07 08:20:07;;;;;;;;;;;18.30;72.40;;;17.60;66.92;96662.41;4232835;33;20517;-82
2022/09/07 08:22:36;;;;;;;;;;;18.30;72.30;;;17.59;66.50;96674.59;4233118;33;20090;-83
2022/09/07 08:25:07;;;;;;;;;;;18.30;72.40;;;17.60;66.54;96667.13;4209373;33;19957;-82
2022/09/07 08:27:36;;;;;;;;;;;18.30;72.40;;;17.58;66.72;96672.13;4209721;33;19902;-82
2022/09/07 08:30:06;;;;;;;;;;;18.30;72.40;;;17.57;66.62;96665.75;4209234;33;20144;-83
2022/09/07 08:32:34;;;;;;;;;;;18.30;72.40;;;17.57;66.90;96681.56;4232789;33;20308;-82
2022/09/07 08:35:03;;;;;;;;;;;18.30;72.40;;;17.56;66.60;96679.91;4232997;33;19944;-82
2022/09/07 08:37:32;;;;;;;;;;;18.30;72.40;;;17.57;66.46;96684.34;4233138;33;20329;-83
2022/09/07 08:40:00;;;;;;;;;;;18.30;72.50;;;17.56;66.52;96674.38;4232482;33;20439;-82
2022/09/07 08:42:43;;;;;;;;;;;18.30;72.40;;;17.55;66.53;96673.56;4209513;33;19906;-82
2022/09/07 08:45:14;;;;;;;;;;;18.30;72.40;;;17.54;66.83;96676.63;4209168;33;20096;-81
2022/09/07 08:47:45;;;;;;;;;;;18.30;72.40;;;17.54;66.67;96694.06;4233965;33;20092;-81
2022/09/07 08:50:18;;;;;;;;;;;18.30;72.40;;;17.54;66.62;96696.84;4209012;33;19909;-82
2022/09/07 08:52:49;;;;;;;;;;;18.30;73.30;;;17.55;66.81;96692.13;4232856;33;20258;-82
2022/09/07 08:55:22;;;;;;;;;;;18.30;72.40;;;17.53;66.63;96697.97;4209461;33;20050;-82
2022/09/07 08:57:56;;;;;;;;;;;18.30;72.60;;;17.54;66.63;96698.78;4209390;33;20101;-81
2022/09/07 09:00:25;;;;;;;;;;;18.30;72.40;;;17.53;66.81;96703.50;4209059;33;20079;-82
2022/09/07 09:02:54;;;;;;;;;;;18.30;72.60;;;17.53;66.73;96703.50;4232907;33;20058;-82
2022/09/07 09:05:28;;;;;;;;;;;18.30;72.50;;;17.53;66.64;96702.66;4232661;33;19902;-82
2022/09/07 09:08:07;;;;;;;;;;;18.30;72.60;;;17.53;66.66;96692.44;4232685;33;19984;-82
2022/09/07 09:10:42;;;;;;;;;;;18.30;72.50;;;17.54;66.85;96705.16;4208778;33;19903;-82
2022/09/07 09:13:17;;;;;;;;;;;18.30;72.50;;;17.54;66.42;96698.78;4232669;33;19902;-82
2022/09/07 09:15:53;;;;;;;;;;;18.30;72.60;;;17.53;66.63;96702.66;4209340;33;19902;-82
2022/09/07 09:18:44;;;;;;;;;;;18.30;72.60;;;17.52;66.53;96701.84;4208972;33;19902;-82
2022/09/07 09:21:14;;;;;;;;;;;18.30;72.50;;;17.53;66.46;96697.97;4233248;33;19976;-82
2022/09/07 09:23:44;;;;;;;;;;;18.30;72.50;;;17.53;66.18;96691.59;4233595;33;20103;-82
2022/09/07 09:26:15;;;;;;;;;;;18.30;72.60;;;17.53;66.73;96691.59;4209175;33;20153;-82
2022/09/07 09:28:45;;;;;;;;;;;18.30;72.50;;;17.51;66.65;96689.13;4232773;33;19993;-82
2022/09/07 09:31:18;;;;;;;;;;;18.30;72.50;;;17.52;66.48;96681.66;4208462;33;20213;-82
2022/09/07 09:34:08;;;;;;;;;;;18.30;72.50;;;17.52;66.51;96689.94;4232463;33;19909;-81
2022/09/07 09:36:42;;;;;;;;;;;18.30;72.50;;;17.52;66.57;96692.72;4234114;33;19925;-82
2022/09/07 09:39:29;;;;;;;;;;;18.30;72.50;;;17.50;66.54;96684.72;4211489;33;19948;-82
2022/09/07 09:42:00;;;;;;;;;;;18.20;72.40;;;17.52;66.86;96678.88;4234944;33;19902;-82
2022/09/07 09:44:34;;;;;;;;;;;18.20;72.40;;;17.51;66.74;96671.69;4211310;33;19921;-82
2022/09/07 09:47:02;;;;;;;;;;;18.30;72.60;;;17.51;66.41;96677.22;4235150;33;19902;-82
2022/09/07 09:49:35;;;;;;;;;;;18.20;72.40;;;17.49;66.94;96670.06;4234465;33;20213;-82
2022/09/07 09:52:04;;;;;;;;;;;18.20;72.40;;;17.51;66.86;96671.69;4234795;33;20070;-82
2022/09/07 09:54:38;;;;;;;;;;;18.20;72.50;;;17.51;66.72;96678.06;4234726;33;19903;-82
2022/09/07 09:57:06;;;;;;;;;;;18.20;72.40;;;17.51;66.68;96672.53;4211597;33;20055;-82
2022/09/07 09:59:36;;;;;;;;;;;18.30;72.60;;;17.51;66.69;96677.22;4234163;33;19903;-82
2022/09/07 10:02:27;;;;;;;;;;;18.20;72.50;;;17.51;66.65;96682.75;4234861;33;19902;-82
2022/09/07 10:04:55;;;;;;;;;;;18.30;72.60;;;17.51;66.48;96688.31;4210999;33;20052;-82
2022/09/07 10:07:26;;;;;;;;;;;18.20;72.50;;;17.52;66.83;96687.19;4211439;33;19910;-82
2022/09/07 10:09:55;;;;;;;;;;;18.30;72.60;;;17.51;66.73;96689.13;4210515;33;20104;-82
2022/09/07 10:12:27;;;;;;;;;;;18.30;72.60;;;17.52;66.79;96692.72;4234616;33;19909;-82
2022/09/07 10:14:57;;;;;;;;;;;18.30;72.60;;;17.52;66.79;96692.72;4211136;33;19920;-82
2022/09/07 10:17:29;;;;;;;;;;;18.30;72.60;;;17.52;66.64;96689.94;4211272;33;20108;-82
2022/09/07 10:20:02;;;;;;;;;;;18.30;72.70;;;17.52;66.74;96679.72;4233860;33;19981;-82
2022/09/07 10:22:33;;;;;;;;;;;18.30;72.60;;;17.52;66.67;96676.09;4234488;33;19925;-82
2022/09/07 10:25:02;;;;;;;;;;;18.30;72.60;;;17.53;66.72;96674.97;4234623;33;19903;-82
2022/09/07 10:27:33;;;;;;;;;;;18.30;72.50;;;17.51;66.74;96680.84;4234694;33;19902;-82
2022/09/07 10:30:06;;;;;;;;;;;18.30;72.70;;;17.53;66.75;96678.59;4210480;33;19910;-82
2022/09/07 10:32:49;;;;;;;;;;;18.30;72.60;;;17.53;66.43;96674.97;4210812;33;19902;-82
2022/09/07 10:35:21;;;;;;;;;;;18.30;72.50;;;17.52;66.62;96676.09;4210920;33;20056;-82
2022/09/07 10:38:15;;;;;;;;;;;18.30;72.60;;;17.52;66.70;96679.72;4234548;33;20267;-82
2022/09/07 10:40:45;;;;;;;;;;;18.30;72.60;;;17.54;66.72;96673.88;4210171;33;19909;-82
2022/09/07 10:43:26;;;;;;;;;;;18.30;72.60;;;17.53;66.81;96669.44;4211038;33;19917;-82
2022/09/07 10:46:36;;;;;;;;;;;18.30;72.50;;;17.53;66.66;96670.28;4210511;33;19988;-82
2022/09/07 10:49:14;;;;;;;;;;;18.30;72.50;;;17.53;66.84;96663.91;4154825;34;19942;-82
2022/09/07 10:51:57;;;;;;;;;;;18.30;72.70;;;17.52;66.80;96659.50;4225524;33;19902;-81
2022/09/07 10:54:39;;;;;;;;;;;18.30;72.60;;;17.53;66.89;96658.38;4205842;33;19980;-82
2022/09/07 10:57:33;;;;;;;;;;;18.30;72.60;;;17.54;66.86;96657.25;4206308;33;20072;-82
2022/09/07 11:00:07;;;;;;;;;;;18.30;72.70;;;17.53;66.74;96659.22;4205442;33;19910;-82
2022/09/07 11:02:51;;;;;;;;;;;18.30;72.60;;;17.54;66.69;96668.31;4205959;33;20056;-82
2022/09/07 11:05:24;;;;;;;;;;;18.30;72.60;;;17.54;66.85;96666.41;4206107;33;20226;-83
2022/09/07 11:08:01;;;;;;;;;;;18.30;72.80;;;17.55;66.81;96678.28;4182760;33;20104;-82
2022/09/07 11:10:36;;;;;;;;;;;18.30;72.60;;;17.55;66.67;96679.13;4206307;33;20222;-83
2022/09/07 11:13:06;;;;;;;;;;;18.30;72.60;;;17.55;66.90;96681.03;4217130;33;19967;-83
2022/09/07 11:15:38;;;;;;;;;;;18.30;72.60;;;17.56;66.70;96688.22;4210306;33;20160;-83
2022/09/07 11:18:14;;;;;;;;;;;18.30;72.80;;;17.56;66.67;96702.06;4233823;33;19902;-83
2022/09/07 11:20:44;;;;;;;;;;;18.30;72.50;;;17.56;66.85;96713.13;4209927;33;20032;-82
2022/09/07 11:23:17;;;;;;;;;;;18.30;72.60;;;17.54;66.70;96707.09;4233686;33;20002;-83
2022/09/07 11:25:54;;;;;;;;;;;18.30;72.60;;;17.54;66.79;96707.09;4233818;33;20107;-83
2022/09/07 11:28:25;;;;;;;;;;;18.30;72.50;;;17.54;66.51;96712.63;4210162;33;19902;-82
2022/09/07 11:30:57;;;;;;;;;;;18.30;72.50;;;17.52;66.59;96701.03;4209617;33;19902;-83
2022/09/07 11:33:29;;;;;;;;;;;18.30;72.60;;;17.51;66.98;96693.84;4233729;33;19902;-83
2022/09/07 11:36:01;;;;;;;;;;;18.30;72.60;;;17.50;66.69;96684.72;4210277;33;20338;-83
2022/09/07 11:38:34;;;;;;;;;;;18.20;72.60;;;17.49;66.84;96686.66;4233601;33;20101;-83
2022/09/07 11:41:23;;;;;;;;;;;18.20;72.60;;;17.47;66.94;96683.41;4233183;33;19909;-83
2022/09/07 11:44:00;;;;;;;;;;;18.20;72.70;;;17.47;67.07;96672.31;4234596;33;20375;-83
2022/09/07 11:46:32;;;;;;;;;;;18.20;72.70;;;17.48;66.90;96670.38;4210196;33;19902;-83
2022/09/07 11:49:04;;;;;;;;;;;18.20;72.80;;;17.47;66.97;96666.78;4210137;33;19903;-83
2022/09/07 11:51:39;;;;;;;;;;;18.20;72.90;;;17.47;66.98;96661.25;4209691;33;19925;-83
2022/09/07 11:54:31;;;;;;;;;;;18.20;73.70;;;17.47;66.94;96661.25;4210086;33;19907;-83
2022/09/07 11:57:07;;;;;;;;;;;18.20;72.80;;;17.47;67.04;96657.66;4210091;33;19911;-83
2022/09/07 11:59:47;;;;;;;;;;;18.20;72.90;;;17.48;67.13;96651.00;4232668;33;19909;-83